Time;durP1;ratioP1;P1;durP2;ratioP2;P2;SDS_P1;SDS_P2;PMS_P1;PMS_P2;Temp;Humidity;BMP_temperature;BMP_pressure;BME280_temperature;BME280_humidity;BME280_pressure;Samples;Min_cycle;Max_cycle;Signal;HPM_P1;HPM_P2
2021/06/24 00:01:57;;;;;;;1.92;0.88;;;17.80;64.80;;;;;;5096901;28;20142;-73
2021/06/24 00:04:23;;;;;;;2.10;1.00;;;17.80;64.80;;;;;;5098113;28;20062;-73
2021/06/24 00:06:48;;;;;;;1.58;1.23;;;17.70;64.70;;;;;;5097487;28;20052;-73
2021/06/24 00:09:14;;;;;;;1.90;1.10;;;17.70;64.70;;;;;;5098124;28;20420;-73
2021/06/24 00:11:40;;;;;;;1.70;1.10;;;17.70;64.70;;;;;;5097488;28;20125;-71
2021/06/24 00:14:06;;;;;;;2.17;1.25;;;17.70;64.30;;;;;;5097385;28;20465;-72
2021/06/24 00:16:32;;;;;;;2.55;1.00;;;17.70;64.70;;;;;;5097227;28;20048;-72
2021/06/24 00:18:58;;;;;;;2.75;1.10;;;17.60;64.80;;;;;;5097110;28;20343;-73
2021/06/24 00:21:24;;;;;;;2.08;1.08;;;17.70;64.90;;;;;;5097817;28;20038;-73
2021/06/24 00:23:50;;;;;;;1.55;0.95;;;17.60;64.70;;;;;;5097118;28;20409;-73
2021/06/24 00:26:16;;;;;;;2.22;1.13;;;17.60;64.60;;;;;;5097901;28;20071;-72
2021/06/24 00:28:42;;;;;;;2.33;0.90;;;17.60;64.80;;;;;;5097295;28;20080;-72
2021/06/24 00:31:08;;;;;;;3.35;1.45;;;17.50;64.70;;;;;;5097324;28;20048;-71
2021/06/24 00:33:34;;;;;;;3.15;1.08;;;17.60;65.10;;;;;;5096804;28;20040;-73
2021/06/24 00:36:00;;;;;;;2.67;1.00;;;17.60;65.10;;;;;;5096850;28;20421;-72
2021/06/24 00:38:26;;;;;;;2.28;1.05;;;17.60;65.00;;;;;;5097268;28;20075;-73
2021/06/24 00:40:52;;;;;;;1.65;1.20;;;17.50;65.00;;;;;;5097185;28;20059;-72
2021/06/24 00:43:20;;;;;;;1.83;1.15;;;17.60;65.10;;;;;;5096977;28;20044;-73
2021/06/24 00:45:47;;;;;;;3.15;1.20;;;17.60;65.20;;;;;;5096518;28;20047;-72
2021/06/24 00:48:13;;;;;;;2.72;0.95;;;17.60;65.10;;;;;;5096450;28;20058;-72
2021/06/24 00:50:41;;;;;;;1.50;0.80;;;17.60;65.00;;;;;;5097010;28;20361;-73
2021/06/24 00:53:09;;;;;;;1.67;1.17;;;17.50;65.10;;;;;;5096221;28;20059;-73
2021/06/24 00:55:44;;;;;;;2.28;0.98;;;17.50;64.90;;;;;;5096697;28;20466;-74
2021/06/24 00:58:15;;;;;;;2.55;0.88;;;17.60;65.20;;;;;;5096238;28;20067;-73
2021/06/24 01:00:42;;;;;;;1.33;0.93;;;17.60;65.10;;;;;;5096223;28;20048;-71
2021/06/24 01:03:09;;;;;;;1.92;1.13;;;17.60;65.20;;;;;;5096311;28;20048;-73
2021/06/24 01:05:37;;;;;;;2.25;1.30;;;17.60;65.10;;;;;;5097109;28;20051;-72
2021/06/24 01:08:05;;;;;;;3.03;1.20;;;17.60;65.10;;;;;;5096607;28;20083;-73
2021/06/24 01:10:30;;;;;;;1.33;0.93;;;17.60;65.60;;;;;;5095890;28;20059;-71
2021/06/24 01:12:56;;;;;;;2.83;1.20;;;17.60;65.00;;;;;;5096351;28;20040;-73
2021/06/24 01:15:22;;;;;;;1.67;0.93;;;17.60;65.00;;;;;;5095222;28;20075;-73
2021/06/24 01:17:48;;;;;;;2.83;0.88;;;17.60;64.90;;;;;;5096929;28;20101;-72
2021/06/24 01:20:16;;;;;;;2.40;1.20;;;17.50;64.80;;;;;;5096462;28;20043;-72
2021/06/24 01:22:43;;;;;;;2.10;1.15;;;17.50;64.90;;;;;;5096722;28;20343;-72
2021/06/24 01:25:09;;;;;;;2.42;1.00;;;17.50;64.90;;;;;;5096257;28;20070;-72
2021/06/24 01:27:35;;;;;;;2.88;1.00;;;17.50;64.90;;;;;;5096203;28;20044;-73
2021/06/24 01:30:02;;;;;;;2.13;1.10;;;17.50;64.90;;;;;;5096256;28;20127;-73
2021/06/24 01:32:29;;;;;;;2.47;1.08;;;17.40;64.90;;;;;;5096102;28;20074;-73
2021/06/24 01:34:55;;;;;;;1.67;0.90;;;17.50;65.50;;;;;;5096108;28;20048;-73
2021/06/24 01:37:22;;;;;;;1.25;0.75;;;17.40;65.00;;;;;;5095792;28;20048;-73
2021/06/24 01:39:48;;;;;;;1.85;0.93;;;17.40;65.00;;;;;;5095664;28;20431;-72
2021/06/24 01:42:14;;;;;;;3.00;0.90;;;17.40;65.00;;;;;;5095407;28;20052;-71
2021/06/24 01:44:40;;;;;;;2.92;0.93;;;17.40;65.10;;;;;;5095603;28;20056;-73
2021/06/24 01:47:09;;;;;;;2.38;0.98;;;17.40;65.20;;;;;;5095774;28;20097;-72
2021/06/24 01:49:36;;;;;;;3.35;1.20;;;17.40;65.00;;;;;;5095618;28;20044;-72
2021/06/24 01:52:02;;;;;;;2.42;1.13;;;17.50;65.10;;;;;;5095814;28;20048;-71
2021/06/24 01:54:28;;;;;;;1.85;1.40;;;17.40;65.00;;;;;;5095774;28;20044;-73
2021/06/24 01:56:54;;;;;;;2.38;1.10;;;17.40;65.10;;;;;;5095395;28;20447;-71
2021/06/24 01:59:20;;;;;;;2.08;0.90;;;17.40;65.10;;;;;;5095523;28;20048;-72
2021/06/24 02:01:46;;;;;;;2.42;1.10;;;17.40;64.90;;;;;;5095252;28;20063;-72
2021/06/24 02:04:12;;;;;;;1.88;1.02;;;17.40;65.00;;;;;;5095651;28;20127;-71
2021/06/24 02:06:38;;;;;;;2.08;0.98;;;17.30;64.90;;;;;;5094461;28;20055;-71
2021/06/24 02:09:05;;;;;;;2.42;0.98;;;17.30;64.80;;;;;;5094452;28;20051;-72
2021/06/24 02:11:31;;;;;;;2.75;0.95;;;17.30;65.00;;;;;;5095312;28;20166;-72
2021/06/24 02:13:57;;;;;;;2.67;1.10;;;17.30;64.80;;;;;;5095200;28;20490;-72
2021/06/24 02:16:23;;;;;;;1.98;1.15;;;17.30;64.80;;;;;;5095651;28;20047;-71
2021/06/24 02:18:49;;;;;;;2.28;0.90;;;17.30;64.80;;;;;;5096003;28;20044;-74
2021/06/24 02:21:14;;;;;;;1.20;0.90;;;17.30;64.80;;;;;;5095197;28;20062;-74
2021/06/24 02:23:40;;;;;;;2.00;0.90;;;17.30;64.90;;;;;;5095093;28;20055;-73
2021/06/24 02:26:06;;;;;;;1.05;0.70;;;17.30;65.00;;;;;;5095087;28;20355;-72
2021/06/24 02:28:32;;;;;;;1.95;0.93;;;17.30;65.00;;;;;;5094929;28;20068;-73
2021/06/24 02:30:58;;;;;;;1.83;0.98;;;17.30;65.00;;;;;;5095583;28;20501;-70
2021/06/24 02:33:26;;;;;;;1.73;1.00;;;17.30;64.80;;;;;;5095873;28;20055;-72
2021/06/24 02:35:57;;;;;;;1.35;0.88;;;17.30;64.90;;;;;;5095059;28;20055;-72
2021/06/24 02:38:24;;;;;;;2.55;0.85;;;17.30;64.80;;;;;;5095109;28;20504;-72
2021/06/24 02:40:50;;;;;;;1.77;0.98;;;17.30;64.90;;;;;;5094912;28;20429;-72
2021/06/24 02:43:16;;;;;;;1.60;0.95;;;17.20;64.90;;;;;;5095146;28;20447;-72
2021/06/24 02:45:43;;;;;;;2.03;1.10;;;17.30;64.80;;;;;;5095199;28;20051;-73
2021/06/24 02:48:09;;;;;;;3.10;1.08;;;17.20;65.50;;;;;;5095318;28;20039;-72
2021/06/24 02:50:43;;;;;;;1.92;1.23;;;17.20;64.90;;;;;;5094067;28;20071;-72
2021/06/24 02:53:09;;;;;;;1.58;0.90;;;17.30;64.90;;;;;;5095129;28;20044;-74
2021/06/24 02:55:35;;;;;;;6.03;1.38;;;17.20;64.90;;;;;;5095525;28;20105;-71
2021/06/24 02:58:01;;;;;;;1.50;0.90;;;17.30;65.00;;;;;;5095001;28;20044;-72
2021/06/24 03:00:27;;;;;;;1.85;0.90;;;17.30;65.10;;;;;;5095142;28;20056;-73
2021/06/24 03:02:54;;;;;;;2.22;1.08;;;17.20;65.10;;;;;;5094745;28;20040;-72
2021/06/24 03:05:20;;;;;;;1.55;0.93;;;17.20;65.00;;;;;;5095569;28;20467;-72
2021/06/24 03:07:47;;;;;;;1.77;0.93;;;17.20;64.90;;;;;;5095146;28;20048;-71
2021/06/24 03:10:13;;;;;;;1.67;1.00;;;17.20;65.00;;;;;;5095360;28;20120;-72
2021/06/24 03:12:40;;;;;;;2.17;1.02;;;17.20;64.90;;;;;;5095458;28;20040;-73
2021/06/24 03:15:07;;;;;;;2.80;1.20;;;17.20;65.00;;;;;;5094917;28;20113;-72
2021/06/24 03:17:35;;;;;;;1.65;0.90;;;17.20;64.90;;;;;;5094921;28;20048;-72
2021/06/24 03:20:03;;;;;;;1.45;0.82;;;17.20;65.00;;;;;;5094366;28;20036;-72
2021/06/24 03:22:29;;;;;;;1.65;1.00;;;17.20;65.00;;;;;;5098404;28;20410;-73
2021/06/24 03:24:57;;;;;;;1.20;0.73;;;17.10;65.00;;;;;;5098502;28;20066;-71
2021/06/24 03:27:22;;;;;;;3.72;1.30;;;17.20;65.00;;;;;;5098328;28;20124;-71
2021/06/24 03:29:49;;;;;;;1.30;1.08;;;17.10;65.00;;;;;;5097386;28;20070;-72
2021/06/24 03:32:15;;;;;;;1.85;0.90;;;17.10;64.90;;;;;;5098061;28;20044;-73
2021/06/24 03:34:41;;;;;;;1.67;1.30;;;17.10;65.10;;;;;;5097840;28;20109;-72
2021/06/24 03:37:06;;;;;;;2.97;0.80;;;17.10;65.10;;;;;;5097815;28;20115;-71
2021/06/24 03:39:32;;;;;;;2.00;1.00;;;17.10;65.20;;;;;;5098337;28;20055;-73
2021/06/24 03:41:58;;;;;;;1.60;1.10;;;17.10;65.30;;;;;;5097908;28;20392;-74
2021/06/24 03:44:24;;;;;;;2.88;1.40;;;17.10;65.40;;;;;;5097867;28;20120;-73
2021/06/24 03:46:50;;;;;;;1.85;1.20;;;17.10;65.40;;;;;;5098113;28;20075;-72
2021/06/24 03:49:15;;;;;;;3.53;1.13;;;17.10;65.50;;;;;;5097617;28;20344;-72
2021/06/24 03:51:41;;;;;;;2.22;0.98;;;17.10;65.50;;;;;;5097641;28;20071;-72
2021/06/24 03:54:07;;;;;;;2.70;1.20;;;17.10;65.40;;;;;;5097860;28;20044;-72
2021/06/24 03:56:33;;;;;;;2.13;1.65;;;17.10;65.40;;;;;;5098080;28;20119;-72
2021/06/24 03:58:59;;;;;;;2.00;1.13;;;17.10;65.40;;;;;;5097942;28;20068;-72
2021/06/24 04:01:25;;;;;;;2.25;1.10;;;17.10;65.30;;;;;;5097425;28;20090;-72
2021/06/24 04:03:51;;;;;;;3.55;1.27;;;17.10;65.50;;;;;;5097188;28;20108;-74
2021/06/24 04:06:17;;;;;;;2.13;0.93;;;17.00;65.50;;;;;;5097363;28;20051;-71
2021/06/24 04:08:43;;;;;;;1.73;1.00;;;17.00;65.70;;;;;;5097802;28;20058;-72
2021/06/24 04:11:08;;;;;;;1.27;0.88;;;17.00;65.80;;;;;;5097440;28;20482;-72
2021/06/24 04:13:34;;;;;;;1.98;0.82;;;17.00;65.80;;;;;;5097798;28;20098;-73
2021/06/24 04:16:01;;;;;;;1.33;1.10;;;17.10;66.00;;;;;;5097533;28;20173;-72
2021/06/24 04:18:27;;;;;;;2.03;1.20;;;17.10;66.00;;;;;;5097753;28;20047;-73
2021/06/24 04:20:52;;;;;;;2.28;0.90;;;17.10;66.00;;;;;;5097572;28;20039;-72
2021/06/24 04:23:18;;;;;;;1.58;1.20;;;17.10;66.00;;;;;;5097759;28;20059;-72
2021/06/24 04:25:44;;;;;;;1.55;1.10;;;17.10;66.00;;;;;;5096461;28;20068;-73
2021/06/24 04:28:10;;;;;;;2.13;1.00;;;17.10;66.00;;;;;;5097042;28;20161;-72
2021/06/24 04:30:36;;;;;;;2.58;1.23;;;17.10;66.10;;;;;;5097305;28;20109;-72
2021/06/24 04:33:06;;;;;;;1.15;0.90;;;17.10;66.20;;;;;;5096293;28;20470;-72
2021/06/24 04:35:33;;;;;;;6.50;1.10;;;17.10;66.20;;;;;;5097301;28;20044;-71
2021/06/24 04:37:59;;;;;;;2.05;1.13;;;17.10;66.20;;;;;;5096892;28;20043;-71
2021/06/24 04:40:25;;;;;;;2.22;1.48;;;17.10;66.40;;;;;;5097173;28;20044;-71
2021/06/24 04:42:51;;;;;;;1.42;0.80;;;17.10;66.50;;;;;;5097574;28;20411;-73
2021/06/24 04:45:17;;;;;;;1.05;0.82;;;17.10;66.50;;;;;;5097510;28;20072;-72
2021/06/24 04:47:43;;;;;;;2.67;1.45;;;17.10;66.50;;;;;;5096632;28;20050;-74
2021/06/24 04:50:10;;;;;;;2.17;1.10;;;17.10;66.50;;;;;;5096870;28;20413;-72
2021/06/24 04:52:36;;;;;;;1.75;0.93;;;17.20;66.60;;;;;;5096519;28;20410;-72
2021/06/24 04:55:03;;;;;;;3.22;1.38;;;17.20;66.60;;;;;;5096812;28;20083;-73
2021/06/24 04:57:29;;;;;;;3.33;1.23;;;17.20;66.60;;;;;;5096679;28;20040;-71
2021/06/24 04:59:58;;;;;;;1.52;1.20;;;17.20;66.70;;;;;;5096459;28;20052;-73
2021/06/24 05:02:24;;;;;;;2.42;1.30;;;17.20;66.80;;;;;;5096019;28;20181;-72
2021/06/24 05:04:50;;;;;;;1.45;0.82;;;17.20;67.40;;;;;;5096428;28;20366;-76
2021/06/24 05:07:16;;;;;;;3.88;1.00;;;17.20;66.80;;;;;;5096610;28;20131;-70
2021/06/24 05:09:42;;;;;;;5.95;1.40;;;17.10;66.90;;;;;;5096480;28;20051;-70
2021/06/24 05:12:09;;;;;;;2.67;1.63;;;17.10;67.10;;;;;;5096525;28;20047;-72
2021/06/24 05:14:40;;;;;;;4.75;1.38;;;17.10;67.80;;;;;;5095800;28;20455;-69
2021/06/24 05:17:11;;;;;;;7.53;1.60;;;17.10;67.80;;;;;;5095881;28;20044;-69
2021/06/24 05:19:37;;;;;;;10.00;1.55;;;17.00;67.60;;;;;;5096779;28;20048;-69
2021/06/24 05:22:04;;;;;;;5.18;1.50;;;17.00;67.70;;;;;;5096384;28;20036;-70
2021/06/24 05:24:34;;;;;;;8.57;1.48;;;17.10;68.20;;;;;;5096853;28;20048;-69
2021/06/24 05:27:04;;;;;;;3.75;1.35;;;17.10;68.50;;;;;;5096207;28;20044;-72
2021/06/24 05:29:30;;;;;;;3.78;1.40;;;17.10;68.80;;;;;;5095521;28;20050;-71
2021/06/24 05:31:56;;;;;;;8.20;1.33;;;17.20;68.80;;;;;;5095835;28;20376;-71
2021/06/24 05:34:22;;;;;;;7.10;1.23;;;17.20;68.80;;;;;;5096076;28;20087;-72
2021/06/24 05:36:48;;;;;;;6.03;1.40;;;17.20;68.70;;;;;;5095822;28;20040;-70
2021/06/24 05:39:14;;;;;;;3.63;1.23;;;17.30;68.70;;;;;;5096099;28;20462;-71
2021/06/24 05:41:40;;;;;;;3.28;1.80;;;17.40;68.40;;;;;;5095610;28;20109;-71
2021/06/24 05:44:06;;;;;;;2.38;1.33;;;17.40;68.00;;;;;;5095341;28;20113;-71
2021/06/24 05:46:31;;;;;;;2.33;0.90;;;17.50;67.70;;;;;;5096099;28;20417;-70
2021/06/24 05:48:57;;;;;;;4.85;1.35;;;17.50;67.30;;;;;;5096038;28;20111;-72
2021/06/24 05:51:23;;;;;;;2.55;1.30;;;17.60;67.00;;;;;;5095827;28;20071;-70
2021/06/24 05:53:51;;;;;;;3.38;1.40;;;17.60;66.60;;;;;;5095794;28;20044;-71
2021/06/24 05:56:17;;;;;;;3.42;1.00;;;17.60;66.30;;;;;;5096219;28;20479;-72
2021/06/24 05:58:43;;;;;;;1.88;1.13;;;17.60;65.90;;;;;;5095954;28;20059;-71
2021/06/24 06:01:09;;;;;;;4.57;1.40;;;17.60;65.50;;;;;;5095451;28;20455;-75
2021/06/24 06:03:36;;;;;;;6.93;1.55;;;17.70;65.30;;;;;;5095789;28;20146;-75
2021/06/24 06:06:01;;;;;;;3.45;1.20;;;17.70;65.40;;;;;;5095542;28;20127;-72
2021/06/24 06:08:27;;;;;;;4.07;1.27;;;17.70;65.30;;;;;;5096211;28;20444;-73
2021/06/24 06:10:53;;;;;;;7.35;1.42;;;17.70;65.00;;;;;;5095346;28;20048;-70
2021/06/24 06:13:19;;;;;;;9.55;1.75;;;17.70;65.40;;;;;;5095034;28;20344;-71
2021/06/24 06:15:50;;;;;;;5.40;1.63;;;17.70;64.40;;;;;;5095803;28;20044;-72
2021/06/24 06:18:19;;;;;;;5.03;1.30;;;17.70;64.40;;;;;;5095339;28;20046;-71
2021/06/24 06:20:47;;;;;;;2.20;1.10;;;17.70;64.10;;;;;;5095414;28;20413;-71
2021/06/24 06:23:14;;;;;;;4.82;1.23;;;17.70;64.10;;;;;;5095194;28;20094;-72
2021/06/24 06:25:41;;;;;;;2.53;1.25;;;17.60;64.00;;;;;;5095722;28;20044;-70
2021/06/24 06:28:08;;;;;;;5.07;1.10;;;17.60;63.90;;;;;;5095724;28;20058;-71
2021/06/24 06:30:34;;;;;;;4.78;1.40;;;17.60;63.70;;;;;;5094202;28;20056;-71
2021/06/24 06:33:01;;;;;;;3.47;0.90;;;17.60;63.70;;;;;;5095195;28;20502;-70
2021/06/24 06:35:35;;;;;;;4.25;1.08;;;17.60;63.60;;;;;;5095204;28;20040;-70
2021/06/24 06:38:01;;;;;;;5.65;1.40;;;17.60;63.60;;;;;;5095039;28;20101;-71
2021/06/24 06:40:27;;;;;;;5.13;1.00;;;17.50;63.70;;;;;;5094849;28;20048;-70
2021/06/24 06:42:53;;;;;;;3.25;1.08;;;17.50;63.90;;;;;;5094818;28;20048;-70
2021/06/24 06:45:24;;;;;;;3.10;1.00;;;17.50;64.20;;;;;;5095023;28;20048;-70
2021/06/24 06:47:50;;;;;;;3.50;0.93;;;17.50;64.40;;;;;;5095102;28;20053;-70
2021/06/24 06:50:16;;;;;;;4.57;0.98;;;17.50;64.50;;;;;;5110585;28;20371;-71
2021/06/24 06:52:42;;;;;;;2.22;1.30;;;17.50;64.50;;;;;;5094686;28;20052;-70
2021/06/24 06:55:09;;;;;;;2.47;0.95;;;17.50;64.60;;;;;;5094833;28;20043;-70
2021/06/24 06:57:35;;;;;;;5.43;1.10;;;17.40;64.70;;;;;;5098800;28;20063;-70
2021/06/24 07:00:01;;;;;;;2.63;1.00;;;17.40;64.80;;;;;;5098495;28;20048;-70
2021/06/24 07:02:27;;;;;;;4.00;1.13;;;17.40;64.70;;;;;;5098702;28;20040;-71
2021/06/24 07:04:52;;;;;;;1.40;0.93;;;17.40;64.90;;;;;;5098527;28;20044;-71
2021/06/24 07:07:18;;;;;;;3.70;1.05;;;17.40;64.90;;;;;;5098642;28;20055;-70
2021/06/24 07:09:44;;;;;;;2.13;0.73;;;17.40;65.00;;;;;;5098344;28;20522;-70
2021/06/24 07:12:11;;;;;;;4.75;1.20;;;17.40;65.10;;;;;;5098401;28;20489;-71
2021/06/24 07:14:36;;;;;;;2.15;1.00;;;17.40;65.00;;;;;;5098693;28;20051;-71
2021/06/24 07:17:02;;;;;;;3.88;0.80;;;17.40;65.00;;;;;;5098514;28;20044;-71
2021/06/24 07:19:28;;;;;;;1.73;1.13;;;17.40;65.00;;;;;;5098456;28;20051;-70
2021/06/24 07:21:54;;;;;;;3.30;0.77;;;17.40;65.20;;;;;;5088375;28;20048;-71
2021/06/24 07:24:21;;;;;;;3.28;0.98;;;17.40;65.20;;;;;;5091516;28;20094;-71
2021/06/24 07:26:47;;;;;;;4.05;1.50;;;17.50;64.90;;;;;;5098060;28;20044;-70
2021/06/24 07:29:13;;;;;;;4.13;1.40;;;17.60;63.80;;;;;;5098106;28;20048;-70
2021/06/24 07:31:39;;;;;;;6.63;1.30;;;17.60;63.40;;;;;;5098188;28;20055;-70
2021/06/24 07:34:06;;;;;;;3.00;1.13;;;17.50;63.60;;;;;;5098275;28;20068;-70
2021/06/24 07:36:32;;;;;;;3.03;1.10;;;17.40;64.00;;;;;;5097743;28;20351;-70
2021/06/24 07:38:58;;;;;;;6.00;1.48;;;17.40;64.20;;;;;;5098022;28;20044;-71
2021/06/24 07:41:24;;;;;;;4.25;1.40;;;17.40;64.30;;;;;;5097810;28;20363;-72
2021/06/24 07:43:52;;;;;;;3.90;0.90;;;17.40;64.60;;;;;;5098162;28;20048;-71
2021/06/24 07:46:21;;;;;;;4.53;1.42;;;17.40;64.70;;;;;;5098140;28;20115;-71
2021/06/24 07:48:48;;;;;;;3.03;1.30;;;17.50;64.10;;;;;;5097646;28;20386;-72
2021/06/24 07:51:14;;;;;;;2.45;1.20;;;17.50;63.00;;;;;;5097474;28;20048;-71
2021/06/24 07:53:42;;;;;;;6.40;1.70;;;17.50;62.90;;;;;;5097434;28;20447;-71
2021/06/24 07:56:10;;;;;;;2.92;1.40;;;17.50;63.20;;;;;;5098122;28;20451;-71
2021/06/24 07:58:36;;;;;;;3.80;1.48;;;17.40;63.60;;;;;;5097773;28;20127;-72
2021/06/24 08:01:03;;;;;;;2.20;1.30;;;17.40;63.90;;;;;;5097829;28;20063;-71
2021/06/24 08:03:28;;;;;;;3.10;1.25;;;17.40;64.10;;;;;;5097560;28;20048;-71
2021/06/24 08:05:54;;;;;;;2.17;0.82;;;17.40;64.30;;;;;;5097468;28;20120;-72
2021/06/24 08:08:20;;;;;;;2.10;1.20;;;17.40;64.40;;;;;;5095711;28;20059;-72
2021/06/24 08:10:46;;;;;;;3.45;1.00;;;17.40;64.40;;;;;;5097856;28;20044;-71
2021/06/24 08:13:12;;;;;;;4.40;1.10;;;17.40;64.50;;;;;;5097583;28;20122;-71
2021/06/24 08:15:38;;;;;;;2.75;0.90;;;17.40;64.60;;;;;;5097897;28;20115;-71
2021/06/24 08:18:04;;;;;;;2.95;1.00;;;17.40;64.60;;;;;;5097347;28;20051;-70
2021/06/24 08:20:30;;;;;;;4.07;1.25;;;17.40;64.50;;;;;;5097149;28;20040;-71
2021/06/24 08:22:56;;;;;;;2.85;0.90;;;17.40;64.60;;;;;;5097710;28;20063;-72
2021/06/24 08:25:23;;;;;;;8.95;1.33;;;17.40;64.70;;;;;;5097260;28;20047;-71
2021/06/24 08:27:50;;;;;;;5.50;1.00;;;17.40;64.30;;;;;;5096942;28;20118;-73
2021/06/24 08:30:17;;;;;;;8.57;1.17;;;17.40;64.70;;;;;;5097060;28;20408;-72
2021/06/24 08:32:43;;;;;;;5.45;1.08;;;17.40;64.90;;;;;;5094657;28;20118;-72
2021/06/24 08:35:10;;;;;;;4.25;0.88;;;17.40;64.90;;;;;;5096711;28;20198;-72
2021/06/24 08:37:37;;;;;;;3.33;1.00;;;17.40;64.80;;;;;;5096425;28;20427;-71
2021/06/24 08:40:08;;;;;;;2.83;1.15;;;17.40;64.60;;;;;;5096802;28;20098;-71
2021/06/24 08:42:35;;;;;;;4.78;1.00;;;17.40;64.90;;;;;;5095901;28;20040;-71
2021/06/24 08:45:03;;;;;;;2.90;0.80;;;17.40;64.70;;;;;;5096803;28;20044;-71
2021/06/24 08:47:30;;;;;;;3.03;0.90;;;17.40;64.70;;;;;;5097121;28;20043;-70
2021/06/24 08:49:57;;;;;;;5.25;0.90;;;17.40;64.80;;;;;;5096594;28;20052;-71
2021/06/24 08:52:24;;;;;;;3.25;1.20;;;17.40;64.80;;;;;;5095879;28;20052;-70
2021/06/24 08:54:50;;;;;;;4.80;1.27;;;17.40;64.90;;;;;;5096590;28;20469;-72
2021/06/24 08:57:16;;;;;;;1.63;0.80;;;17.40;65.00;;;;;;5097370;28;20040;-71
2021/06/24 08:59:43;;;;;;;2.75;0.85;;;17.40;65.10;;;;;;5095435;28;20040;-70
2021/06/24 09:02:12;;;;;;;4.32;0.90;;;17.40;65.20;;;;;;5096367;28;20511;-71
2021/06/24 09:04:40;;;;;;;4.72;0.90;;;17.40;65.10;;;;;;5096442;28;20048;-71
2021/06/24 09:07:08;;;;;;;2.17;1.02;;;17.40;65.10;;;;;;5096447;28;20040;-70
2021/06/24 09:09:36;;;;;;;2.33;1.15;;;17.50;65.10;;;;;;5096432;28;20401;-71
2021/06/24 09:12:11;;;;;;;3.13;1.10;;;17.50;65.10;;;;;;5096443;28;20040;-71
2021/06/24 09:14:46;;;;;;;1.75;0.95;;;17.50;65.00;;;;;;5096394;28;20102;-70
2021/06/24 09:17:33;;;;;;;3.88;0.98;;;17.50;65.00;;;;;;5096521;28;20048;-71
2021/06/24 09:19:59;;;;;;;2.25;0.95;;;17.50;65.20;;;;;;5096410;28;20040;-72
2021/06/24 09:22:25;;;;;;;2.50;1.40;;;17.50;65.20;;;;;;5095575;28;20044;-71
2021/06/24 09:24:50;;;;;;;2.85;1.40;;;17.50;65.30;;;;;;5095967;28;20059;-72
2021/06/24 09:27:26;;;;;;;1.73;1.02;;;17.60;65.10;;;;;;5095770;28;20044;-70
2021/06/24 09:30:01;;;;;;;2.38;1.50;;;17.60;64.80;;;;;;5095880;28;20136;-72
2021/06/24 09:32:31;;;;;;;3.65;1.27;;;17.60;64.00;;;;;;5096099;28;20043;-71
2021/06/24 09:34:57;;;;;;;3.92;1.20;;;17.60;64.30;;;;;;5095933;28;20040;-70
2021/06/24 09:37:24;;;;;;;2.85;1.67;;;17.60;64.00;;;;;;5096533;28;20094;-71
2021/06/24 09:39:54;;;;;;;3.10;2.05;;;17.70;63.10;;;;;;5096278;28;20044;-71
2021/06/24 09:42:20;;;;;;;3.88;1.67;;;17.70;62.90;;;;;;5095880;28;20048;-70
2021/06/24 09:44:48;;;;;;;3.55;1.42;;;17.70;63.20;;;;;;5095668;28;20477;-71
2021/06/24 09:47:19;;;;;;;3.03;1.30;;;17.60;63.50;;;;;;5095930;28;20044;-71
2021/06/24 09:50:03;;;;;;;3.15;1.27;;;17.60;63.80;;;;;;5095916;28;20103;-70
2021/06/24 09:52:29;;;;;;;;;;;17.60;64.00;;;;;;5095451;28;20044;-71
2021/06/24 09:55:16;;;;;;;2.10;0.90;;;17.60;64.10;;;;;;5095176;28;19973;-71
2021/06/24 09:57:43;;;;;;;2.90;0.90;;;17.60;64.30;;;;;;5095561;28;20056;-72
2021/06/24 10:00:24;;;;;;;4.10;0.90;;;17.60;64.40;;;;;;5095512;28;20129;-71
2021/06/24 10:03:03;;;;;;;2.38;0.90;;;17.70;64.50;;;;;;5095273;28;20044;-72
2021/06/24 10:05:29;;;;;;;5.60;0.93;;;17.70;64.60;;;;;;5095448;28;20048;-71
2021/06/24 10:07:56;;;;;;;3.30;1.30;;;17.70;64.70;;;;;;5095463;28;20048;-70
2021/06/24 10:10:23;;;;;;;1.55;0.90;;;17.70;64.80;;;;;;5096167;28;20046;-71
2021/06/24 10:12:49;;;;;;;1.30;0.77;;;17.70;64.90;;;;;;5096079;28;20097;-71
2021/06/24 10:15:17;;;;;;;2.78;1.10;;;17.70;64.90;;;;;;5095446;28;20186;-73
2021/06/24 10:17:43;;;;;;;10.35;2.03;;;17.80;65.00;;;;;;5095446;28;20044;-73
2021/06/24 10:20:11;;;;;;;9.00;2.25;;;17.80;64.90;;;;;;5094404;28;20044;-73
2021/06/24 10:22:38;;;;;;;6.43;1.90;;;17.80;64.90;;;;;;5095477;28;20123;-74
2021/06/24 10:25:15;;;;;;;5.57;2.10;;;17.80;64.80;;;;;;5095340;28;20043;-69
2021/06/24 10:27:45;;;;;;;4.72;1.73;;;17.80;65.00;;;;;;5095111;28;20089;-71
2021/06/24 10:30:20;;;;;;;7.13;1.50;;;17.80;65.00;;;;;;5095404;28;20044;-73
2021/06/24 10:33:02;;;;;;;6.03;1.33;;;17.80;65.20;;;;;;5099313;28;20378;-74
2021/06/24 10:35:33;;;;;;;3.97;1.30;;;17.80;65.20;;;;;;5099501;28;20040;-73
2021/06/24 10:38:01;;;;;;;4.43;1.25;;;17.80;65.40;;;;;;5099368;28;20091;-72
2021/06/24 10:40:35;;;;;;;5.57;1.83;;;17.80;65.50;;;;;;5098222;28;20459;-75
2021/06/24 10:43:14;;;;;;;6.70;1.30;;;17.80;65.90;;;;;;5099297;28;20090;-73
2021/06/24 10:45:43;;;;;;;2.70;1.20;;;17.80;65.80;;;;;;5099137;28;20048;-74
2021/06/24 10:48:29;;;;;;;9.40;1.73;;;17.80;65.70;;;;;;5099278;28;20358;-72
2021/06/24 10:51:03;;;;;;;5.13;1.50;;;17.80;65.50;;;;;;5098995;28;20086;-74
2021/06/24 10:53:29;;;;;;;5.15;0.80;;;17.80;65.80;;;;;;5099187;28;20040;-72
2021/06/24 10:55:55;;;;;;;6.30;1.55;;;17.80;65.70;;;;;;5098957;28;20082;-73
2021/06/24 10:58:27;;;;;;;10.18;1.40;;;17.80;65.70;;;;;;5099139;28;20048;-73
2021/06/24 11:00:57;;;;;;;11.25;1.48;;;17.80;65.90;;;;;;5099081;28;20075;-72
2021/06/24 11:03:32;;;;;;;13.70;1.85;;;17.80;66.20;;;;;;5098834;28;20126;-75
2021/06/24 11:06:14;;;;;;;14.40;2.38;;;17.90;66.50;;;;;;5098839;28;20050;-73
2021/06/24 11:08:41;;;;;;;13.05;2.40;;;17.90;66.60;;;;;;5098915;28;20101;-76
2021/06/24 11:11:10;;;;;;;18.40;2.40;;;17.90;66.50;;;;;;5098829;28;20040;-72
2021/06/24 11:16:15;;;;;;;13.38;2.95;;;17.90;66.40;;;;;;5098757;28;20101;-73
2021/06/24 11:18:44;;;;;;;12.07;2.55;;;17.90;66.50;;;;;;5098403;28;20036;-74
2021/06/24 11:21:20;;;;;;;18.50;3.47;;;17.90;66.50;;;;;;5098632;28;20115;-75
2021/06/24 11:23:54;;;;;;;10.50;3.05;;;17.90;66.60;;;;;;5099143;28;20059;-75
2021/06/24 11:26:30;;;;;;;13.65;3.10;;;17.90;66.50;;;;;;5098314;28;20047;-74
2021/06/24 11:31:41;;;;;;;9.65;2.25;;;18.00;66.70;;;;;;5098129;28;20043;-74
2021/06/24 11:37:18;;;;;;;7.72;1.60;;;17.90;66.70;;;;;;5036324;28;20334;-74
2021/06/24 11:39:52;;;;;;;10.93;2.20;;;17.90;66.60;;;;;;5084864;28;20052;-76
2021/06/24 11:42:36;;;;;;;8.95;1.90;;;17.90;66.70;;;;;;5096177;28;20040;-73
2021/06/24 11:45:05;;;;;;;11.05;1.65;;;18.00;66.70;;;;;;5098061;28;20113;-73
2021/06/24 11:47:32;;;;;;;10.88;1.95;;;18.00;66.70;;;;;;5097793;28;20118;-74
2021/06/24 12:04:16;;;;;;;4.85;1.42;;;18.10;66.90;;;;;;5098020;28;20101;-75
2021/06/24 12:06:57;;;;;;;6.45;1.45;;;18.00;66.80;;;;;;5097822;28;20362;-74
2021/06/24 12:09:37;;;;;;;5.78;1.27;;;18.00;67.40;;;;;;5097577;28;20364;-74
2021/06/24 12:12:03;;;;;;;9.18;1.90;;;18.10;66.90;;;;;;5097883;28;20059;-74
2021/06/24 12:14:31;;;;;;;6.03;1.50;;;18.00;66.80;;;;;;5097749;28;20044;-76
2021/06/24 12:17:06;;;;;;;6.00;1.55;;;18.10;66.90;;;;;;5097301;28;20067;-73
2021/06/24 12:19:54;;;;;;;6.47;1.40;;;18.10;66.80;;;;;;5097557;28;20052;-74
2021/06/24 12:22:34;;;;;;;5.35;1.23;;;18.10;66.70;;;;;;5097491;28;20040;-75
2021/06/24 12:25:02;;;;;;;3.40;1.30;;;18.10;66.70;;;;;;5097177;28;20064;-74
2021/06/24 12:27:41;;;;;;;4.80;1.25;;;18.10;66.70;;;;;;5097393;28;20131;-74
2021/06/24 12:30:11;;;;;;;3.05;1.15;;;18.10;66.80;;;;;;5097491;28;20040;-76
2021/06/24 12:32:37;;;;;;;3.00;1.25;;;18.10;66.70;;;;;;5097329;28;20068;-74
2021/06/24 12:35:05;;;;;;;5.30;1.45;;;18.10;66.70;;;;;;5097140;28;20043;-75
2021/06/24 12:37:39;;;;;;;6.90;1.35;;;18.10;66.80;;;;;;5097342;28;20040;-74
2021/06/24 12:40:10;;;;;;;3.38;0.90;;;18.10;66.80;;;;;;5096916;28;20435;-73
2021/06/24 12:42:46;;;;;;;3.63;1.00;;;18.10;66.90;;;;;;5097588;28;20436;-74
2021/06/24 12:45:14;;;;;;;5.25;1.45;;;18.10;66.80;;;;;;5097269;28;20052;-75
2021/06/24 12:47:43;;;;;;;6.03;1.17;;;18.10;66.90;;;;;;5097129;28;20064;-74
2021/06/24 12:50:22;;;;;;;2.70;1.15;;;18.10;66.90;;;;;;5096967;28;20044;-74
2021/06/24 12:52:54;;;;;;;4.30;1.38;;;18.20;67.00;;;;;;5096353;28;20050;-74
2021/06/24 12:55:50;;;;;;;3.67;1.30;;;18.10;66.90;;;;;;5097427;28;20071;-74
2021/06/24 12:58:17;;;;;;;2.67;0.95;;;18.20;67.00;;;;;;5097133;28;20051;-75
2021/06/24 13:00:56;;;;;;;3.05;1.30;;;18.20;67.00;;;;;;5096294;28;20055;-75
2021/06/24 13:03:40;;;;;;;3.53;0.90;;;18.20;67.00;;;;;;5096704;28;20048;-74
2021/06/24 13:06:27;;;;;;;3.42;1.40;;;18.20;67.00;;;;;;5095475;28;20043;-75
2021/06/24 13:09:09;;;;;;;3.00;0.95;;;18.20;67.00;;;;;;5096651;28;20059;-73
2021/06/24 13:11:47;;;;;;;7.75;1.00;;;18.20;67.10;;;;;;5095451;28;20055;-74
2021/06/24 13:14:15;;;;;;;2.03;1.00;;;18.20;67.10;;;;;;5096500;28;20098;-75